Cochituate, Massachusetts
Current Conditions -  °F | °C
As of 10:56 PM on Saturday 25 Oct 2014 (Local Time) from KBED Reporting Station
Overcast Overcast  
Wind Chill: 55°   Ceiling: 10000
Heat Index: 55°   Visibility: 10mi
Dew Point: 44°   Wind: 7mph
Humidity: 67%   Direction: 240°WSW
Pressure: 29.51"   Gusts: NA
Location:  42.3586°N, 71.3587°W
Report Text: KBED 260256Z 24006KT 10SM SCT070 OVC100 13/07 A2951 RMK AO2 SLP005 T01280067 56021
Loading
Personal Weather Stations






























Interactive Weather Map
Tropical Storm Tracking
New forecast layout! Learn more

10-Day Weather Forecast

Advertisements
Track Severe Weather on mobile